Time;durP1;ratioP1;P1;durP2;ratioP2;P2;SDS_P1;SDS_P2;PMS_P1;PMS_P2;Temp;Humidity;BMP_temperature;BMP_pressure;BME280_temperature;BME280_humidity;BME280_pressure;Samples;Min_cycle;Max_cycle;Signal;HPM_P1;HPM_P2
2021/11/30 00:02:17;;;;;;;2.58;0.40;;;;;;;10.57;73.34;100375.25;4974762;28;20050;-54
2021/11/30 00:05:03;;;;;;;1.00;0.40;;;;;;;10.57;73.27;100373.31;4977879;28;20053;-54
2021/11/30 00:07:51;;;;;;;3.72;0.57;;;;;;;10.55;73.26;100388.38;4977062;28;20046;-54
2021/11/30 00:10:48;;;;;;;1.05;0.60;;;;;;;10.56;73.05;100384.53;4974872;28;20049;-54
2021/11/30 00:13:35;;;;;;;1.52;0.50;;;;;;;10.56;72.72;100390.78;4977641;28;20521;-54
2021/11/30 00:16:20;;;;;;;2.85;0.40;;;;;;;10.48;72.96;100388.88;4976025;28;20054;-54
2021/11/30 00:19:05;;;;;;;0.65;0.38;;;;;;;10.45;73.16;100388.72;4974692;28;20065;-54
2021/11/30 00:21:51;;;;;;;0.20;0.20;;;;;;;10.41;73.18;100396.72;4996021;22;20053;-57
2021/11/30 00:24:36;;;;;;;;;;;;;;;10.40;73.13;100402.47;5055918;28;20072;-57
2021/11/30 00:27:20;;;;;;;0.40;0.35;;;;;;;10.37;73.23;100411.25;5046603;28;19917;-57
2021/11/30 00:30:05;;;;;;;0.98;0.40;;;;;;;10.33;72.85;100413.03;5050227;28;20036;-58
2021/11/30 00:32:51;;;;;;;0.52;0.40;;;;;;;10.32;73.06;100414.13;5027172;28;20048;-57
2021/11/30 00:35:37;;;;;;;1.05;0.40;;;;;;;10.36;73.16;100412.41;5020196;28;21479;-57
2021/11/30 00:38:21;;;;;;;1.42;0.40;;;;;;;10.32;73.45;100422.28;5028110;28;20409;-57
2021/11/30 00:41:06;;;;;;;0.40;0.30;;;;;;;10.28;73.46;100422.94;5029756;28;20432;-57
2021/11/30 00:43:54;;;;;;;0.50;0.30;;;;;;;10.27;73.22;100424.06;5026359;28;20056;-57
2021/11/30 00:46:40;;;;;;;0.25;0.22;;;;;;;10.25;73.08;100434.47;5032745;28;20040;-57
2021/11/30 00:49:26;;;;;;;0.90;0.30;;;;;;;10.23;73.25;100438.59;5021077;28;20044;-58
2021/11/30 00:52:11;;;;;;;1.83;0.40;;;;;;;10.16;73.21;100449.94;5015395;28;20057;-57
2021/11/30 00:54:56;;;;;;;0.35;0.20;;;;;;;10.08;72.33;100456.13;5026616;28;20053;-57
2021/11/30 00:57:41;;;;;;;;;;;;;;;10.16;72.98;100460.81;5023398;28;20121;-57
2021/11/30 01:00:26;;;;;;;0.40;0.40;;;;;;;10.13;73.49;100464.13;5019718;28;19913;-57
2021/11/30 01:03:11;;;;;;;0.40;0.25;;;;;;;10.13;73.18;100469.56;5015340;28;20524;-57
2021/11/30 01:05:56;;;;;;;1.27;0.20;;;;;;;10.11;73.05;100466.34;5029722;28;20045;-57
2021/11/30 01:08:41;;;;;;;0.30;0.20;;;;;;;10.14;73.51;100473.09;5031744;28;20048;-57
2021/11/30 01:11:26;;;;;;;0.43;0.32;;;;;;;10.14;73.69;100482.03;5032242;28;20053;-57
2021/11/30 01:14:11;;;;;;;0.65;0.38;;;;;;;10.13;73.86;100485.88;5021668;28;20068;-57
2021/11/30 01:16:56;;;;;;;0.93;0.40;;;;;;;10.13;74.00;100485.88;5018983;28;20061;-57
2021/11/30 01:19:41;;;;;;;0.38;0.25;;;;;;;10.16;73.94;100496.13;5036476;28;20068;-57
2021/11/30 01:22:26;;;;;;;;;;;;;;;10.17;73.73;100508.59;5035985;28;20049;-58
2021/11/30 01:25:11;;;;;;;0.80;0.32;;;;;;;9.99;70.65;100522.44;5037597;28;19913;-57
2021/11/30 01:27:55;;;;;;;0.93;0.40;;;;;;;9.90;70.13;100519.72;5036347;28;20052;-57
2021/11/30 01:30:40;;;;;;;0.95;0.40;;;;;;;9.86;69.75;100526.88;5030410;28;20056;-57
2021/11/30 01:33:25;;;;;;;0.63;0.38;;;;;;;9.84;70.07;100537.25;5030447;28;20049;-58
2021/11/30 01:36:10;;;;;;;2.35;0.30;;;;;;;9.75;68.48;100533.72;5017043;28;20049;-57
2021/11/30 01:38:56;;;;;;;0.45;0.32;;;;;;;9.74;68.37;100537.53;5027384;28;20072;-58
2021/11/30 01:41:42;;;;;;;0.70;0.40;;;;;;;9.71;67.76;100540.88;5033926;28;20044;-57
2021/11/30 01:50:15;;;;;;;0.77;0.43;;;;;;;9.79;72.43;100567.28;5032752;28;20532;-57
2021/11/30 01:53:00;;;;;;;1.13;0.40;;;;;;;9.78;73.17;100576.53;5030797;28;20437;-58
2021/11/30 01:55:47;;;;;;;1.48;0.40;;;;;;;9.76;73.55;100576.81;5034725;28;20492;-57
2021/11/30 01:58:32;;;;;;;1.38;0.40;;;;;;;9.73;73.47;100582.91;5032764;28;20052;-57
2021/11/30 02:01:17;;;;;;;0.70;0.28;;;;;;;9.64;72.72;100592.91;5030398;28;20052;-57
2021/11/30 02:04:03;;;;;;;1.20;0.47;;;;;;;9.61;72.52;100590.81;5032663;28;20051;-57
2021/11/30 02:06:47;;;;;;;0.50;0.38;;;;;;;9.57;72.04;100599.91;5036882;28;20052;-57
2021/11/30 02:09:33;;;;;;;0.80;0.30;;;;;;;9.52;70.97;100600.03;5020028;28;20061;-57
2021/11/30 02:12:17;;;;;;;0.77;0.35;;;;;;;9.47;71.32;100595.53;5018910;28;20040;-57
2021/11/30 02:15:03;;;;;;;;;;;;;;;9.41;69.61;100603.00;5032434;28;20065;-57
2021/11/30 02:17:48;;;;;;;1.10;0.50;;;;;;;9.34;68.25;100599.13;5032702;28;19912;-57
2021/11/30 02:20:37;;;;;;;0.88;0.32;;;;;;;9.37;70.06;100604.72;5017081;28;20068;-57
2021/11/30 02:24:09;;;;;;;0.85;0.40;;;;;;;9.33;68.67;100609.19;5033078;28;20514;-57
2021/11/30 02:26:36;;;;;;;3.38;0.52;;;;;;;9.43;72.19;100610.84;5028986;28;20515;-57
2021/11/30 02:29:21;;;;;;;1.02;0.43;;;;;;;9.44;73.15;100613.25;5044311;28;20404;-57
2021/11/30 02:32:08;;;;;;;0.30;0.30;;;;;;;9.48;73.88;100610.72;5034991;28;20040;-57
2021/11/30 02:34:52;;;;;;;0.60;0.30;;;;;;;9.49;73.96;100617.75;5040281;28;20049;-57
2021/11/30 02:37:39;;;;;;;0.60;0.40;;;;;;;9.44;74.33;100615.97;5054099;28;20102;-57
2021/11/30 02:40:24;;;;;;;0.68;0.32;;;;;;;9.39;74.59;100621.53;5018968;28;20045;-57
2021/11/30 02:43:09;;;;;;;0.90;0.38;;;;;;;9.37;74.10;100620.22;5018221;28;20048;-57
2021/11/30 02:45:53;;;;;;;2.15;0.32;;;;;;;9.32;74.08;100617.63;5025884;28;20508;-57
2021/11/30 02:48:39;;;;;;;1.30;0.40;;;;;;;9.29;74.47;100620.97;5033688;28;20056;-58
2021/11/30 02:51:25;;;;;;;0.32;0.20;;;;;;;9.24;73.57;100624.59;5030313;28;20037;-57
2021/11/30 02:54:13;;;;;;;1.35;0.50;;;;;;;9.25;74.19;100626.19;5037433;28;20072;-57
2021/11/30 02:57:01;;;;;;;1.15;0.40;;;;;;;9.27;74.96;100629.41;5028585;28;20049;-57
2021/11/30 02:59:49;;;;;;;0.43;0.35;;;;;;;9.28;75.31;100631.00;5030961;28;20053;-57
2021/11/30 03:02:36;;;;;;;0.90;0.50;;;;;;;9.27;75.57;100628.59;5037716;28;20515;-57
2021/11/30 03:05:21;;;;;;;0.95;0.40;;;;;;;9.25;75.41;100628.09;5035161;28;20396;-57
2021/11/30 03:08:06;;;;;;;;;;;;;;;9.25;75.69;100628.09;5033011;28;20078;-57
2021/11/30 03:10:52;;;;;;;0.80;0.50;;;;;;;9.20;75.94;100639.88;5016844;28;19920;-57
2021/11/30 03:13:37;;;;;;;4.00;0.40;;;;;;;9.22;76.16;100629.53;5016574;28;20064;-57
2021/11/30 03:16:22;;;;;;;2.42;0.57;;;;;;;9.20;76.20;100637.16;5026388;28;20066;-57
2021/11/30 03:19:07;;;;;;;1.42;0.22;;;;;;;9.21;76.33;100641.47;5018303;28;20067;-57
2021/11/30 03:21:53;;;;;;;0.77;0.20;;;;;;;9.21;75.90;100646.09;5029148;28;20043;-56
2021/11/30 03:24:38;;;;;;;1.67;0.45;;;;;;;9.18;76.63;100638.59;5041821;28;20036;-58
2021/11/30 03:27:23;;;;;;;0.32;0.20;;;;;;;9.12;76.37;100650.66;5041714;28;20064;-57
2021/11/30 03:30:09;;;;;;;0.45;0.20;;;;;;;9.08;75.87;100655.91;5034795;28;20053;-57
2021/11/30 03:35:58;;;;;;;0.50;0.40;;;;;;;8.93;73.08;100653.53;5032018;28;20401;-57
2021/11/30 03:38:43;;;;;;;1.48;0.30;;;;;;;8.89;70.36;100661.47;5015215;28;20413;-56
2021/11/30 03:41:30;;;;;;;;;;;;;;;8.92;71.70;100662.78;5031202;28;20041;-57
2021/11/30 03:44:16;;;;;;;0.57;0.35;;;;;;;8.86;67.05;100669.41;5016899;28;19913;-56
2021/11/30 03:47:01;;;;;;;2.22;0.40;;;;;;;8.88;70.66;100665.31;5015966;28;20053;-58
2021/11/30 03:49:45;;;;;;;0.70;0.30;;;;;;;8.89;73.54;100671.50;5015655;28;20401;-57
2021/11/30 03:52:31;;;;;;;0.95;0.30;;;;;;;8.87;74.78;100658.28;5027444;28;20040;-57
2021/11/30 03:55:16;;;;;;;1.80;0.35;;;;;;;8.86;75.50;100658.56;5021758;28;20056;-57
2021/11/30 03:58:01;;;;;;;0.50;0.30;;;;;;;8.85;75.83;100668.63;5020350;28;20396;-56
2021/11/30 04:00:46;;;;;;;0.38;0.30;;;;;;;8.82;75.62;100677.38;5028017;28;20041;-57
2021/11/30 04:03:33;;;;;;;0.10;0.10;;;;;;;8.81;75.24;100677.66;5034383;28;20044;-57
2021/11/30 04:06:18;;;;;;;0.93;0.30;;;;;;;8.70;73.66;100673.56;5025062;28;20044;-57
2021/11/30 04:09:03;;;;;;;1.15;0.43;;;;;;;8.73;74.10;100681.09;5022122;28;20049;-57
2021/11/30 04:11:49;;;;;;;2.47;0.20;;;;;;;8.72;72.29;100674.88;5032661;28;20040;-58
2021/11/30 04:14:33;;;;;;;2.85;0.60;;;;;;;8.65;67.96;100671.75;5030515;28;20052;-57
2021/11/30 04:17:18;;;;;;;2.17;0.70;;;;;;;8.64;67.92;100672.84;5016947;28;20068;-57
2021/11/30 04:20:04;;;;;;;3.90;0.57;;;;;;;8.68;71.52;100667.66;5028533;28;20053;-58
2021/11/30 04:22:48;;;;;;;0.65;0.47;;;;;;;8.65;70.42;100663.63;5033362;28;20056;-58
2021/11/30 04:25:34;;;;;;;0.98;0.30;;;;;;;8.67;73.04;100671.47;5027098;28;20045;-57
2021/11/30 04:28:20;;;;;;;2.25;0.60;;;;;;;8.67;73.99;100677.69;5017866;28;20061;-58
2021/11/30 04:31:05;;;;;;;2.63;0.63;;;;;;;8.67;75.12;100676.88;5017256;28;20515;-58
2021/11/30 04:33:50;;;;;;;0.55;0.50;;;;;;;8.63;74.29;100681.31;5012169;28;20061;-58
2021/11/30 04:36:35;;;;;;;1.15;0.68;;;;;;;8.57;73.23;100681.41;5015419;28;20056;-57
2021/11/30 04:39:19;;;;;;;0.75;0.30;;;;;;;8.52;71.68;100695.06;5020244;28;20412;-58
2021/11/30 04:42:04;;;;;;;1.13;0.40;;;;;;;8.57;72.64;100692.25;5031188;28;20049;-58
2021/11/30 04:45:01;;;;;;;0.40;0.30;;;;;;;8.46;70.59;100681.91;5018648;28;20057;-58
2021/11/30 04:47:46;;;;;;;0.75;0.40;;;;;;;8.38;69.23;100688.06;5024832;28;20037;-58
2021/11/30 04:50:35;;;;;;;1.08;0.38;;;;;;;8.37;69.91;100695.38;5025317;28;20049;-57
2021/11/30 04:53:21;;;;;;;1.05;0.60;;;;;;;8.32;69.23;100708.22;5034552;28;20056;-58
2021/11/30 04:56:06;;;;;;;1.02;0.50;;;;;;;8.43;72.39;100712.34;5032566;28;20082;-58
2021/11/30 04:58:51;;;;;;;0.80;0.30;;;;;;;8.47;73.83;100716.06;5030870;28;20052;-57
2021/11/30 05:01:36;;;;;;;0.43;0.25;;;;;;;8.48;74.56;100709.53;5018621;28;20048;-58
2021/11/30 05:04:21;;;;;;;5.25;0.47;;;;;;;8.40;73.29;100711.03;5020496;28;20041;-57
2021/11/30 05:07:06;;;;;;;3.25;0.40;;;;;;;8.28;69.06;100712.59;5030703;28;20056;-58
2021/11/30 05:09:50;;;;;;;0.22;0.20;;;;;;;8.26;69.00;100701.25;5016981;28;20508;-58
2021/11/30 05:12:36;;;;;;;2.33;0.73;;;;;;;8.35;70.70;100710.31;5031590;28;20056;-57
2021/11/30 05:15:20;;;;;;;0.45;0.38;;;;;;;8.37;71.67;100727.09;5028606;28;20052;-57
2021/11/30 05:18:05;;;;;;;2.35;0.38;;;;;;;8.30;67.54;100723.94;5027273;28;20125;-57
2021/11/30 05:20:51;;;;;;;0.57;0.20;;;;;;;8.30;66.52;100727.47;5017312;28;20045;-57
2021/11/30 05:23:36;;;;;;;0.52;0.30;;;;;;;8.36;71.08;100731.69;5014987;28;20060;-57
2021/11/30 05:26:20;;;;;;;0.68;0.50;;;;;;;8.34;69.58;100733.09;5020151;28;20049;-58
2021/11/30 05:29:06;;;;;;;0.20;0.20;;;;;;;8.45;74.13;100746.16;5025310;28;20064;-58
2021/11/30 05:31:51;;;;;;;0.80;0.22;;;;;;;8.47;74.82;100749.38;5029363;28;20044;-58
2021/11/30 05:34:36;;;;;;;2.05;0.40;;;;;;;8.35;72.59;100749.03;5020039;28;20057;-58
2021/11/30 05:37:20;;;;;;;1.45;0.32;;;;;;;8.34;72.20;100749.34;5036785;28;20056;-58
2021/11/30 05:40:06;;;;;;;1.02;0.40;;;;;;;8.35;72.58;100750.94;5025157;28;20047;-58
2021/11/30 05:42:51;;;;;;;2.38;0.68;;;;;;;8.35;72.82;100754.47;5032898;28;20045;-58
2021/11/30 05:45:36;;;;;;;1.67;0.57;;;;;;;8.38;73.68;100750.38;5032438;28;20048;-57
2021/11/30 05:48:21;;;;;;;0.55;0.30;;;;;;;8.38;74.66;100755.78;5026219;28;20048;-57
2021/11/30 05:51:06;;;;;;;1.65;0.60;;;;;;;8.33;71.87;100758.59;5026195;28;20053;-57
2021/11/30 05:53:51;;;;;;;1.83;0.80;;;;;;;8.26;67.20;100752.72;5028962;28;20053;-57
2021/11/30 05:56:39;;;;;;;0.70;0.30;;;;;;;8.30;68.15;100753.75;5027899;28;20523;-57
2021/11/30 05:59:26;;;;;;;3.40;0.68;;;;;;;8.13;60.82;100770.53;5035050;28;20040;-58
2021/11/30 06:02:12;;;;;;;2.08;0.98;;;;;;;7.90;54.63;100772.28;5022815;28;20048;-58
2021/11/30 06:04:57;;;;;;;4.65;1.10;;;;;;;7.84;54.83;100769.94;5015378;28;20041;-57
2021/11/30 06:07:42;;;;;;;9.30;1.20;;;;;;;7.82;54.96;100772.97;5023208;28;20076;-57
2021/11/30 06:10:27;;;;;;;11.23;0.52;;;;;;;7.93;60.88;100773.59;5020364;28;20053;-57
2021/11/30 06:13:12;;;;;;;2.17;0.45;;;;;;;7.93;61.30;100779.00;5029586;28;20036;-57
2021/11/30 06:15:57;;;;;;;4.60;1.30;;;;;;;8.01;67.02;100776.44;5027088;28;20052;-58
2021/11/30 06:18:42;;;;;;;7.20;0.60;;;;;;;8.07;70.66;100785.28;5035590;28;20049;-57
2021/11/30 06:21:27;;;;;;;6.18;0.70;;;;;;;8.07;73.08;100786.09;5023418;28;20040;-57
2021/11/30 06:24:12;;;;;;;3.13;0.63;;;;;;;8.06;71.63;100787.19;5025893;28;20052;-57
2021/11/30 06:26:57;;;;;;;0.90;0.43;;;;;;;7.97;66.15;100790.88;5033670;28;20040;-57
2021/11/30 06:29:42;;;;;;;3.53;0.70;;;;;;;7.89;60.21;100802.34;5029472;28;20037;-57
2021/11/30 06:32:27;;;;;;;1.42;0.40;;;;;;;7.97;68.04;100802.50;5028444;28;20064;-57
2021/11/30 06:35:12;;;;;;;1.30;0.70;;;;;;;7.92;67.76;100790.97;5037426;28;20052;-57
2021/11/30 06:37:57;;;;;;;3.75;0.75;;;;;;;7.93;68.25;100781.72;5055784;23;20053;-81
2021/11/30 06:40:42;;;;;;;4.63;1.23;;;;;;;7.87;65.49;100788.31;5039828;28;20044;-82
2021/11/30 06:43:27;;;;;;;5.63;0.95;;;;;;;7.93;70.49;100787.13;5027772;28;20057;-81
2021/11/30 06:46:12;;;;;;;;;;;;;;;7.90;72.95;100799.34;5038897;28;20441;-81
2021/11/30 06:48:56;;;;;;;16.60;2.95;;;;;;;7.83;73.42;100800.81;5024079;28;19912;-82
2021/11/30 06:51:41;;;;;;;14.25;2.63;;;;;;;7.79;71.90;100797.91;5030188;28;20049;-80
2021/11/30 06:54:26;;;;;;;;;;;;;;;7.90;74.70;100803.97;5035332;28;20060;-81
2021/11/30 06:57:12;;;;;;;16.85;3.70;;;;;;;7.87;75.13;100818.91;5031343;28;19921;-82
2021/11/30 07:00:01;;;;;;;16.80;3.28;;;;;;;7.82;74.80;100832.53;5044138;28;20044;-83
2021/11/30 07:02:47;;;;;;;16.02;3.83;;;;;;;7.78;74.15;100844.22;5043636;28;20045;-82
2021/11/30 07:05:35;;;;;;;17.98;4.05;;;;;;;7.74;73.77;100836.69;5029496;28;20533;-82
2021/11/30 07:08:23;;;;;;;20.70;4.75;;;;;;;7.67;71.85;100843.53;5039234;28;20609;-82
2021/11/30 07:11:19;;;;;;;6.88;2.67;;;;;;;7.63;70.37;100837.94;5043542;28;20068;-82
2021/11/30 07:14:05;;;;;;;18.55;4.88;;;;;;;7.76;74.43;100843.72;5031796;28;20417;-82
2021/11/30 07:16:50;;;;;;;17.67;4.57;;;;;;;7.80;75.96;100842.03;5029681;28;20053;-81
2021/11/30 07:19:35;;;;;;;14.05;3.30;;;;;;;7.86;77.98;100862.50;5035805;28;20048;-82
2021/11/30 07:22:20;;;;;;;18.15;6.07;;;;;;;7.88;78.71;100871.13;5037186;28;20052;-82
2021/11/30 07:25:05;;;;;;;7.93;3.10;;;;;;;7.61;70.61;100872.59;5043961;28;20044;-82
2021/11/30 07:27:52;;;;;;;9.45;2.17;;;;;;;7.54;69.17;100877.56;5040733;28;20056;-82
2021/11/30 07:30:38;;;;;;;12.63;4.22;;;;;;;7.68;74.71;100881.16;5037219;28;20044;-81
2021/11/30 07:33:25;;;;;;;15.25;3.92;;;;;;;7.70;75.53;100864.63;5043280;28;20045;-82
2021/11/30 07:36:12;;;;;;;13.80;3.38;;;;;;;7.72;76.74;100871.34;5035144;28;20048;-82
2021/11/30 07:38:58;;;;;;;18.92;4.80;;;;;;;7.75;77.58;100869.97;5036971;28;20549;-82
2021/11/30 07:41:44;;;;;;;17.05;4.32;;;;;;;7.77;78.07;100880.53;5043309;28;20049;-82
2021/11/30 07:44:31;;;;;;;22.38;4.85;;;;;;;7.77;76.95;100880.53;5049324;28;20044;-82
2021/11/30 07:47:17;;;;;;;19.02;5.05;;;;;;;7.76;78.38;100881.59;5041597;28;20044;-82
2021/11/30 07:50:03;;;;;;;17.80;3.85;;;;;;;7.71;78.36;100888.72;5044315;28;20052;-81
2021/11/30 07:52:48;;;;;;;23.10;5.70;;;;;;;7.69;78.38;100890.09;5043965;28;20048;-82
2021/11/30 07:55:33;;;;;;;13.60;3.60;;;;;;;7.70;77.64;100892.50;5043673;28;20409;-83
2021/11/30 07:58:19;;;;;;;17.15;2.78;;;;;;;7.68;77.71;100894.69;5039178;28;20052;-82
2021/11/30 08:01:05;;;;;;;14.23;4.72;;;;;;;7.66;77.32;100888.78;5043314;28;20060;-81
2021/11/30 08:03:49;;;;;;;15.13;4.28;;;;;;;7.73;79.60;100891.91;5035887;28;20041;-81
2021/11/30 08:06:34;;;;;;;16.05;3.33;;;;;;;7.72;79.27;100901.13;5036429;28;20052;-80
2021/11/30 08:09:19;;;;;;;9.10;3.10;;;;;;;7.75;80.32;100905.16;5041187;28;20520;-81
2021/11/30 08:12:04;;;;;;;16.48;5.32;;;;;;;7.76;81.64;100909.50;5039880;28;20052;-81
2021/11/30 08:14:49;;;;;;;15.25;3.50;;;;;;;7.74;81.88;100915.19;5036490;28;20049;-81
2021/11/30 08:17:34;;;;;;;10.45;2.42;;;;;;;7.77;81.67;100926.53;5040332;28;20413;-81
2021/11/30 08:20:19;;;;;;;10.63;3.65;;;;;;;7.81;82.30;100927.56;5042905;28;20053;-81
2021/11/30 08:23:04;;;;;;;14.50;3.08;;;;;;;7.83;82.10;100926.16;5042252;28;20049;-81
2021/11/30 08:25:49;;;;;;;9.32;2.53;;;;;;;7.73;81.16;100921.69;5041799;28;20052;-81
2021/11/30 08:28:34;;;;;;;8.95;2.85;;;;;;;7.57;74.95;100917.56;5033763;28;20064;-80
2021/11/30 08:31:19;;;;;;;15.38;3.00;;;;;;;7.58;76.84;100911.06;5042211;28;20048;-81
2021/11/30 08:34:03;;;;;;;10.13;2.17;;;;;;;7.59;76.39;100911.88;5041407;28;20048;-79
2021/11/30 08:36:48;;;;;;;12.77;2.67;;;;;;;7.61;77.25;100909.69;5038772;28;20052;-80
2021/11/30 08:39:34;;;;;;;6.88;2.67;;;;;;;7.54;74.95;100903.81;5037173;28;20048;-80
2021/11/30 08:42:22;;;;;;;11.32;3.53;;;;;;;7.50;73.65;100909.00;5034990;28;20032;-79
2021/11/30 08:45:08;;;;;;;13.38;2.75;;;;;;;7.53;73.07;100903.00;5039731;28;20052;-81
2021/11/30 08:47:53;;;;;;;7.50;2.30;;;;;;;7.53;72.63;100913.81;5038292;28;20099;-81
2021/11/30 08:50:38;;;;;;;2.17;1.00;;;;;;;7.25;61.68;100909.31;5041295;28;20048;-80
2021/11/30 08:53:24;;;;;;;5.32;1.40;;;;;;;7.07;52.21;100908.16;5043281;28;20048;-80
2021/11/30 08:56:09;;;;;;;3.85;0.90;;;;;;;6.88;49.09;100902.66;5041120;28;20052;-81
2021/11/30 08:58:53;;;;;;;10.80;1.80;;;;;;;7.16;59.05;100914.53;5036131;28;20451;-79
2021/11/30 09:01:41;;;;;;;7.75;1.92;;;;;;;7.31;64.66;100921.69;5039811;28;20116;-79
2021/11/30 09:04:26;;;;;;;4.95;1.23;;;;;;;7.31;65.23;100922.47;5023820;28;20060;-80
2021/11/30 09:07:11;;;;;;;7.88;1.70;;;;;;;7.30;65.14;100922.78;5038578;28;20068;-80
2021/11/30 09:09:56;;;;;;;7.15;3.22;;;;;;;7.37;67.52;100923.22;5042813;28;20052;-80
2021/11/30 09:12:41;;;;;;;6.88;2.55;;;;;;;7.50;72.17;100925.25;5041062;28;20053;-81
2021/11/30 09:15:26;;;;;;;17.23;5.93;;;;;;;7.47;72.18;100933.91;5038238;28;20053;-79
2021/11/30 09:18:11;;;;;;;8.60;2.80;;;;;;;7.47;71.49;100936.63;5040735;28;20052;-80
2021/11/30 09:21:00;;;;;;;8.45;4.07;;;;;;;7.47;68.39;100933.91;5040351;28;20053;-79
2021/11/30 09:23:50;;;;;;;3.95;1.73;;;;;;;7.53;69.63;100924.66;5042519;28;20040;-79
2021/11/30 09:26:35;;;;;;;9.43;2.38;;;;;;;7.53;70.78;100935.47;5033884;28;20032;-80
2021/11/30 09:29:20;;;;;;;8.15;1.60;;;;;;;7.49;68.90;100925.53;5035808;28;20430;-79
2021/11/30 09:32:08;;;;;;;8.27;1.63;;;;;;;7.52;69.23;100919.53;5040404;28;20052;-79
2021/11/30 09:34:53;;;;;;;12.38;2.90;;;;;;;7.56;70.91;100918.69;5039534;28;20056;-79
2021/11/30 09:37:48;;;;;;;7.85;2.45;;;;;;;7.55;69.51;100917.06;5037113;28;20060;-80
2021/11/30 09:40:34;;;;;;;4.75;1.90;;;;;;;7.61;71.88;100909.69;5039968;28;20048;-79
2021/11/30 09:43:19;;;;;;;8.10;2.45;;;;;;;7.65;70.67;100914.22;5039172;28;20048;-78
2021/11/30 09:46:05;;;;;;;;;;;;;;;7.73;72.49;100913.56;5035820;28;20417;-79
2021/11/30 09:48:51;;;;;;;;;;;;;;;7.70;69.49;100913.34;5037573;28;19913;-79
2021/11/30 09:55:07;;;;;;;8.10;2.00;;;;;;;7.83;74.02;100917.22;5036267;28;20049;-79
2021/11/30 09:57:53;;;;;;;5.03;2.60;;;;;;;7.82;71.56;100908.31;5038368;28;20060;-79
2021/11/30 10:00:39;;;;;;;8.35;2.03;;;;;;;7.87;73.60;100910.97;5036112;28;20048;-80
2021/11/30 10:03:25;;;;;;;5.80;1.75;;;;;;;7.82;70.64;100899.41;5024717;28;20052;-79
2021/11/30 10:06:12;;;;;;;4.88;1.27;;;;;;;7.87;72.31;100891.19;5038007;28;20045;-79
2021/11/30 10:08:57;;;;;;;6.65;1.85;;;;;;;7.89;73.13;100891.69;5037158;28;20064;-80
2021/11/30 10:11:42;;;;;;;7.78;1.48;;;;;;;7.94;73.41;100887.03;5041545;28;20060;-80
2021/11/30 10:14:34;;;;;;;6.90;1.58;;;;;;;7.94;72.08;100873.47;5039553;28;20044;-80
2021/11/30 10:17:26;;;;;;;6.07;1.48;;;;;;;7.88;68.27;100884.66;5036904;28;20418;-80
2021/11/30 10:20:13;;;;;;;5.07;2.05;;;;;;;7.90;67.64;100875.16;5040145;28;20040;-80
2021/11/30 10:22:58;;;;;;;5.47;1.50;;;;;;;7.93;69.07;100873.75;5038763;28;20043;-79
2021/11/30 10:25:46;;;;;;;4.65;1.05;;;;;;;8.05;73.54;100866.81;5036583;28;20524;-79
2021/11/30 10:28:32;;;;;;;3.35;1.15;;;;;;;7.95;65.57;100858.03;5038095;28;20517;-80
2021/11/30 10:31:17;;;;;;;5.53;1.67;;;;;;;8.05;69.33;100860.59;5035922;28;20043;-79
2021/11/30 10:34:25;;;;;;;1.58;0.90;;;;;;;8.18;72.79;100853.63;5032750;28;20048;-79
2021/11/30 10:37:11;;;;;;;2.35;1.08;;;;;;;8.24;72.15;100849.72;5037191;28;20532;-80
2021/11/30 10:40:07;;;;;;;3.95;1.67;;;;;;;8.22;71.13;100839.19;5040766;28;20053;-80
2021/11/30 10:43:00;;;;;;;4.43;1.30;;;;;;;8.22;69.77;100843.81;5039875;28;20513;-80
2021/11/30 10:45:48;;;;;;;6.07;1.52;;;;;;;8.34;73.96;100844.97;5039407;28;20053;-80
2021/11/30 10:48:33;;;;;;;7.95;1.73;;;;;;;8.24;70.01;100828.06;5022929;28;20052;-79
2021/11/30 10:51:18;;;;;;;3.63;1.70;;;;;;;8.31;72.82;100823.91;5043713;28;20048;-81
2021/11/30 10:54:03;;;;;;;9.07;1.23;;;;;;;8.39;73.54;100834.03;5044457;28;20052;-80
2021/11/30 10:57:01;;;;;;;4.63;1.27;;;;;;;8.45;73.01;100832.84;5032738;28;20045;-81
2021/11/30 10:59:46;;;;;;;5.97;1.90;;;;;;;8.40;72.68;100826.72;5039945;28;20045;-81
2021/11/30 11:09:03;;;;;;;5.57;1.27;;;;;;;8.53;71.09;100807.78;5035021;28;20068;-80
2021/11/30 11:12:02;;;;;;;3.10;1.20;;;;;;;8.50;70.56;100811.09;5042738;28;20044;-80
2021/11/30 11:14:48;;;;;;;5.10;1.50;;;;;;;8.44;67.43;100804.16;5035299;28;20060;-81
2021/11/30 11:17:33;;;;;;;7.60;1.80;;;;;;;8.49;69.75;100804.06;5037428;28;20052;-80
2021/11/30 11:20:20;;;;;;;9.57;1.30;;;;;;;8.42;63.01;100792.00;5042349;28;20048;-81
2021/11/30 11:23:04;;;;;;;3.70;0.95;;;;;;;8.37;62.68;100781.28;5042087;28;20410;-81
2021/11/30 11:25:53;;;;;;;5.40;1.70;;;;;;;8.51;69.48;100777.47;5037944;28;20057;-80
2021/11/30 11:28:38;;;;;;;3.25;1.35;;;;;;;8.42;63.55;100771.16;5037888;28;20048;-81
2021/11/30 11:31:25;;;;;;;4.45;1.10;;;;;;;8.42;61.41;100762.22;5039436;28;20064;-81
2021/11/30 11:34:11;;;;;;;4.43;1.67;;;;;;;8.47;65.08;100760.22;5023622;28;20061;-81
2021/11/30 11:36:58;;;;;;;2.80;1.30;;;;;;;8.46;63.22;100761.31;5040656;28;20048;-81
2021/11/30 11:39:43;;;;;;;3.95;1.13;;;;;;;8.46;62.17;100755.09;5034279;28;20052;-81
2021/11/30 11:42:28;;;;;;;6.10;1.33;;;;;;;8.42;59.93;100749.47;5017040;28;20056;-80
2021/11/30 11:45:12;;;;;;;1.08;0.63;;;;;;;8.46;62.34;100742.34;5020906;28;20053;-83
2021/11/30 11:48:02;;;;;;;;;;;;;;;8.54;61.95;100738.91;5019687;28;20079;-83
2021/11/30 11:50:50;;;;;;;9.35;4.30;;;;;;;8.63;66.13;100739.03;5030579;28;19913;-81
2021/11/30 11:53:55;;;;;;;9.35;2.58;;;;;;;8.37;38.38;100724.38;5041356;28;20044;-84
2021/11/30 11:56:40;;;;;;;2.55;1.70;;;;;;;8.20;35.98;100714.09;5039338;28;20056;-85
2021/11/30 11:59:39;;;;;;;7.18;2.05;;;;;;;8.36;36.30;100712.72;5037170;28;20044;-83
2021/11/30 12:02:27;;;;;;;9.85;1.35;;;;;;;8.35;35.52;100718.44;5040473;28;20433;-83
2021/11/30 12:05:11;;;;;;;2.60;1.27;;;;;;;8.34;34.24;100708.69;5023152;28;20052;-85
2021/11/30 12:08:01;;;;;;;2.65;1.08;;;;;;;8.23;34.42;100704.56;5040353;28;20044;-84
2021/11/30 12:10:47;;;;;;;2.90;0.90;;;;;;;8.21;34.60;100706.75;5044103;28;20068;-84
2021/11/30 12:13:32;;;;;;;2.30;1.40;;;;;;;8.18;35.01;100701.97;5038921;28;20052;-84
2021/11/30 12:16:17;;;;;;;1.67;1.13;;;;;;;8.10;34.96;100700.72;5042240;28;20104;-83
2021/11/30 12:19:26;;;;;;;2.30;1.00;;;;;;;8.18;35.33;100700.03;5037245;28;20124;-85
2021/11/30 12:22:14;;;;;;;2.17;1.20;;;;;;;8.06;35.85;100700.53;5037737;28;20044;-84
2021/11/30 12:24:59;;;;;;;3.28;1.27;;;;;;;8.15;36.30;100703.34;5042433;28;20685;-84
2021/11/30 12:27:44;;;;;;;1.80;1.10;;;;;;;8.21;36.47;100694.03;5044121;28;20044;-84
2021/11/30 12:30:55;;;;;;;4.45;1.02;;;;;;;8.45;35.75;100694.66;5039715;28;20052;-84
2021/11/30 12:33:39;;;;;;;4.85;1.77;;;;;;;8.47;35.90;100688.94;5025083;28;20053;-83
2021/11/30 12:36:34;;;;;;;4.72;1.10;;;;;;;8.43;36.37;100685.25;5040809;28;20052;-84
2021/11/30 12:39:19;;;;;;;8.15;1.60;;;;;;;8.42;36.91;100687.16;5062445;22;20052;-57
2021/11/30 12:42:04;;;;;;;3.45;1.63;;;;;;;8.58;37.02;100683.00;5035686;28;20555;-57
2021/11/30 12:44:49;;;;;;;3.35;1.10;;;;;;;8.67;36.15;100679.59;5039856;28;20056;-57
2021/11/30 12:47:35;;;;;;;2.33;1.40;;;;;;;8.72;36.25;100674.06;5037580;28;20040;-57
2021/11/30 12:50:26;;;;;;;6.35;2.83;;;;;;;9.37;35.96;100674.47;5035653;28;20056;-57
2021/11/30 12:53:11;;;;;;;6.90;2.97;;;;;;;16.08;26.43;100670.53;5039319;28;20060;-56
2021/11/30 12:55:56;;;;;;;4.65;2.75;;;;;;;19.33;20.91;100667.78;5037031;28;20412;-57
2021/11/30 12:58:49;;;;;;;3.80;2.40;;;;;;;21.11;19.61;100662.66;5035557;28;20048;-58
2021/11/30 13:01:34;;;;;;;5.55;2.38;;;;;;;20.82;19.04;100658.16;5031275;28;20511;-57
2021/11/30 13:04:31;;;;;;;3.03;1.45;;;;;;;22.53;17.13;100655.47;5029939;28;20048;-57
2021/11/30 13:07:17;;;;;;;4.47;2.20;;;;;;;21.33;18.66;100652.53;5034994;28;20052;-59
2021/11/30 13:10:05;;;;;;;5.97;2.47;;;;;;;21.47;18.25;100649.00;5038620;28;20056;-57
2021/11/30 13:12:53;;;;;;;6.43;2.20;;;;;;;22.09;17.04;100644.03;5036558;28;20436;-57
2021/11/30 13:15:46;;;;;;;6.70;1.90;;;;;;;22.52;16.63;100639.25;5034883;28;20056;-58
2021/11/30 13:18:34;;;;;;;6.45;1.98;;;;;;;23.30;16.35;100645.41;5036690;28;20040;-58
2021/11/30 13:21:18;;;;;;;3.90;1.63;;;;;;;21.31;17.58;100633.53;5028161;28;20056;-57
2021/11/30 13:24:04;;;;;;;;;;;;;;;20.68;18.56;100631.22;5038955;28;20056;-59